createdAt,value
2023-05-06T00:02:35.439Z,11.98
2023-05-06T00:07:37.872Z,12.04
2023-05-06T00:12:40.254Z,12.07
2023-05-06T00:17:42.599Z,12.11
2023-05-06T00:22:44.943Z,12.15
2023-05-06T00:27:47.307Z,12.17
2023-05-06T00:32:49.723Z,12.14
2023-05-06T00:37:52.441Z,12.11
2023-05-06T00:42:54.767Z,11.96
2023-05-06T00:47:57.117Z,11.78
2023-05-06T00:52:59.484Z,11.59
2023-05-06T00:58:01.949Z,11.50
2023-05-06T01:03:04.403Z,11.37
2023-05-06T01:08:07.084Z,11.27
2023-05-06T01:13:09.543Z,11.20
2023-05-06T01:18:12.023Z,11.08
2023-05-06T01:23:14.729Z,11.00
2023-05-06T01:28:17.154Z,10.99
2023-05-06T01:33:19.544Z,10.91
2023-05-06T01:38:22.277Z,10.88
2023-05-06T01:43:25.183Z,10.79
2023-05-06T01:48:28.129Z,10.75
2023-05-06T01:53:30.747Z,10.81
2023-05-06T01:58:33.090Z,10.93
2023-05-06T02:03:37.473Z,11.05
2023-05-06T02:08:40.039Z,11.09
2023-05-06T02:13:42.408Z,11.07
2023-05-06T02:18:45.792Z,11.07
2023-05-06T02:23:48.234Z,11.03
2023-05-06T02:28:50.545Z,10.99
2023-05-06T02:33:52.899Z,10.98
2023-05-06T02:38:55.535Z,11.02
2023-05-06T02:43:57.881Z,11.07
2023-05-06T02:49:00.216Z,11.08
2023-05-06T02:54:02.544Z,11.10
2023-05-06T02:59:04.985Z,11.09
2023-05-06T03:04:07.452Z,11.11
2023-05-06T03:09:10.276Z,11.15
2023-05-06T03:14:12.629Z,11.27
2023-05-06T03:19:15.053Z,11.34
2023-05-06T03:24:17.370Z,11.37
2023-05-06T03:29:19.705Z,11.33
2023-05-06T03:34:22.080Z,11.21
2023-05-06T03:39:24.648Z,11.11
2023-05-06T03:44:27.087Z,10.99
2023-05-06T03:49:29.440Z,10.95
2023-05-06T03:54:32.218Z,10.92
2023-05-06T03:59:34.601Z,10.88
2023-05-06T04:04:36.942Z,10.88
2023-05-06T04:09:39.287Z,10.86
2023-05-06T04:14:41.647Z,10.80
2023-05-06T04:19:44.450Z,10.87
2023-05-06T04:24:46.838Z,10.88
2023-05-06T04:29:49.360Z,10.98
2023-05-06T04:34:51.721Z,11.00
2023-05-06T04:39:54.438Z,11.09
2023-05-06T04:44:59.067Z,11.30
2023-05-06T04:50:01.797Z,11.52
2023-05-06T04:55:04.369Z,11.77
2023-05-06T05:00:07.453Z,12.03
2023-05-06T05:05:10.719Z,12.20
2023-05-06T05:10:13.285Z,12.38
2023-05-06T05:15:15.873Z,12.42
2023-05-06T05:20:18.249Z,12.62
2023-05-06T05:25:21.414Z,13.08
2023-05-06T05:30:24.239Z,13.47
2023-05-06T05:35:26.963Z,13.34
2023-05-06T05:40:29.626Z,13.19
2023-05-06T05:45:32.429Z,13.28
2023-05-06T05:50:35.025Z,13.44
2023-05-06T05:55:37.419Z,13.63
2023-05-06T06:00:40.409Z,13.94
2023-05-06T06:05:42.809Z,14.06
2023-05-06T06:10:45.179Z,13.95
2023-05-06T06:15:47.589Z,13.86
2023-05-06T06:20:52.331Z,13.98
2023-05-06T06:25:56.149Z,13.88
2023-05-06T06:30:58.825Z,14.00
2023-05-06T06:36:01.838Z,14.12
2023-05-06T06:41:04.543Z,14.19
2023-05-06T06:46:07.661Z,14.03
2023-05-06T06:51:10.539Z,13.97
2023-05-06T06:56:13.045Z,13.81
2023-05-06T07:01:15.451Z,13.75
2023-05-06T07:06:17.895Z,13.94
2023-05-06T07:11:20.596Z,14.18
2023-05-06T07:16:23.232Z,14.53
2023-05-06T07:21:25.638Z,15.01
2023-05-06T07:26:28.065Z,15.35
2023-05-06T07:31:30.551Z,15.88
2023-05-06T07:36:40.233Z,16.15
2023-05-06T07:41:43.043Z,17.04
2023-05-06T07:46:45.913Z,16.56
2023-05-06T07:51:48.307Z,16.70
2023-05-06T07:56:51.297Z,16.82
2023-05-06T08:01:54.104Z,17.97
2023-05-06T08:06:57.020Z,18.09
2023-05-06T08:11:59.426Z,17.82
2023-05-06T08:17:02.321Z,17.48
2023-05-06T08:22:04.706Z,17.13
2023-05-06T08:27:07.175Z,17.52
2023-05-06T08:32:09.814Z,17.58
2023-05-06T08:37:12.171Z,17.68
2023-05-06T08:42:14.620Z,17.76
2023-05-06T08:47:17.245Z,18.03
2023-05-06T08:52:21.304Z,19.05
2023-05-06T08:57:23.677Z,19.44
2023-05-06T09:02:26.170Z,19.58
2023-05-06T09:07:28.640Z,19.58
2023-05-06T09:12:31.033Z,19.60
2023-05-06T09:17:33.686Z,20.02
2023-05-06T09:22:36.311Z,19.99
2023-05-06T09:27:38.828Z,19.06
2023-05-06T09:32:41.726Z,18.90
2023-05-06T09:37:44.160Z,18.86
2023-05-06T09:42:46.548Z,18.55
2023-05-06T09:47:49.548Z,19.43
2023-05-06T09:52:52.000Z,18.74
2023-05-06T09:57:54.639Z,18.59
2023-05-06T10:02:57.120Z,17.82
2023-05-06T10:08:00.007Z,17.28
2023-05-06T10:13:02.466Z,18.22
2023-05-06T10:18:05.062Z,19.36
2023-05-06T10:23:07.447Z,20.12
2023-05-06T10:28:16.175Z,19.96
2023-05-06T10:33:27.242Z,19.86
2023-05-06T10:38:29.959Z,19.69
2023-05-06T10:43:32.601Z,19.45
2023-05-06T10:48:34.984Z,18.92
2023-05-06T10:53:37.352Z,18.87
2023-05-06T10:58:40.207Z,19.02
2023-05-06T11:03:42.949Z,19.08
2023-05-06T11:08:46.678Z,19.72
2023-05-06T11:13:50.597Z,20.29
2023-05-06T11:18:53.034Z,21.18
2023-05-06T11:23:55.733Z,21.05
2023-05-06T11:28:58.064Z,19.85
2023-05-06T11:34:00.688Z,19.49
2023-05-06T11:39:05.249Z,19.12
2023-05-06T11:44:10.250Z,19.52
2023-05-06T11:49:13.950Z,20.12
2023-05-06T11:54:19.023Z,20.33
2023-05-06T11:59:21.473Z,20.44
2023-05-06T12:04:23.860Z,19.89
2023-05-06T12:09:26.801Z,20.30
2023-05-06T12:14:29.567Z,20.84
2023-05-06T12:19:31.992Z,21.48
2023-05-06T12:24:34.330Z,21.76
2023-05-06T12:29:36.659Z,20.80
2023-05-06T12:34:39.177Z,20.81
2023-05-06T12:39:41.529Z,19.94
2023-05-06T12:44:43.870Z,19.82
2023-05-06T12:49:46.239Z,20.56
2023-05-06T12:54:48.840Z,21.20
2023-05-06T12:59:51.554Z,21.16
2023-05-06T13:04:54.012Z,20.84
2023-05-06T13:09:56.544Z,20.99
2023-05-06T13:14:58.946Z,20.24
2023-05-06T13:20:02.282Z,19.89
2023-05-06T13:25:06.302Z,20.00
2023-05-06T13:30:08.956Z,20.37
2023-05-06T13:35:11.959Z,20.64
2023-05-06T13:40:14.820Z,20.68
2023-05-06T13:45:17.100Z,20.88
2023-05-06T13:50:19.440Z,20.55
2023-05-06T13:55:21.838Z,20.67
2023-05-06T14:00:24.240Z,20.84
2023-05-06T14:05:26.671Z,21.50
2023-05-06T14:10:29.159Z,21.65
2023-05-06T14:15:31.527Z,20.75
2023-05-06T14:20:33.880Z,20.62
2023-05-06T14:25:36.860Z,20.87
2023-05-06T14:30:39.207Z,21.74
2023-05-06T14:35:41.867Z,21.77
2023-05-06T14:40:44.196Z,22.31
2023-05-06T14:45:47.211Z,22.45
2023-05-06T14:50:49.581Z,21.69
2023-05-06T14:55:51.904Z,21.05
2023-05-06T15:00:54.318Z,20.56
2023-05-06T15:05:56.784Z,20.73
2023-05-06T15:11:00.594Z,21.13
2023-05-06T15:16:04.154Z,20.96
2023-05-06T15:21:06.622Z,20.80
2023-05-06T15:26:09.047Z,21.18
2023-05-06T15:31:11.406Z,21.23
2023-05-06T15:36:13.821Z,21.32
2023-05-06T15:41:16.365Z,21.20
2023-05-06T15:46:18.782Z,21.07
2023-05-06T15:51:21.438Z,21.09
2023-05-06T15:56:26.874Z,21.27
2023-05-06T16:06:40.954Z,20.29
2023-05-06T16:11:43.448Z,20.37
2023-05-06T16:16:46.977Z,20.52
2023-05-06T16:21:49.411Z,20.60
2023-05-06T16:26:51.780Z,20.46
2023-05-06T16:31:54.156Z,19.95
2023-05-06T16:36:57.476Z,19.85
2023-05-06T16:41:59.865Z,19.91
2023-05-06T16:47:02.262Z,19.84
2023-05-06T16:52:04.646Z,19.59
2023-05-06T16:57:07.202Z,19.34
2023-05-06T17:02:09.511Z,18.96
2023-05-06T17:07:12.128Z,18.76
2023-05-06T17:12:14.572Z,18.61
2023-05-06T17:17:17.019Z,18.47
2023-05-06T17:22:20.727Z,18.37
2023-05-06T17:27:23.130Z,18.19
2023-05-06T17:32:26.041Z,18.10
2023-05-06T17:37:28.529Z,17.98
2023-05-06T17:42:31.253Z,17.89
2023-05-06T17:47:34.343Z,17.79
2023-05-06T17:52:36.724Z,17.72
2023-05-06T17:57:39.067Z,17.58
2023-05-06T18:02:41.543Z,17.51
2023-05-06T18:07:44.046Z,17.33
2023-05-06T18:12:46.756Z,17.15
2023-05-06T18:17:49.242Z,16.96
2023-05-06T18:22:51.697Z,16.83
2023-05-06T18:27:54.242Z,16.57
2023-05-06T18:32:57.083Z,16.41
2023-05-06T18:37:59.877Z,16.24
2023-05-06T18:43:02.275Z,16.02
2023-05-06T18:48:05.041Z,15.99
2023-05-06T18:53:07.893Z,15.79
2023-05-06T18:58:10.294Z,15.70
2023-05-06T19:03:12.642Z,15.59
2023-05-06T19:08:16.110Z,15.55
2023-05-06T19:13:18.538Z,15.46
2023-05-06T19:18:20.968Z,15.38
2023-05-06T19:23:23.673Z,15.27
2023-05-06T19:28:26.149Z,15.10
2023-05-06T19:33:28.946Z,15.06
2023-05-06T19:38:31.426Z,14.91
2023-05-06T19:43:34.344Z,14.84
2023-05-06T19:48:37.154Z,14.87
2023-05-06T19:53:39.961Z,14.90
2023-05-06T19:58:42.321Z,14.94
2023-05-06T20:03:45.006Z,14.97
2023-05-06T20:08:47.556Z,14.90
2023-05-06T20:13:50.051Z,14.96
2023-05-06T20:18:53.141Z,14.91
2023-05-06T20:23:55.603Z,14.84
2023-05-06T20:28:58.096Z,14.66
2023-05-06T20:34:00.498Z,14.70
2023-05-06T20:39:03.019Z,14.60
2023-05-06T20:44:05.362Z,14.53
2023-05-06T20:49:07.737Z,14.44
2023-05-06T20:54:10.122Z,14.34
2023-05-06T20:59:12.453Z,14.20
2023-05-06T21:04:14.913Z,14.06
2023-05-06T21:09:17.731Z,14.00
2023-05-06T21:14:20.094Z,13.92
2023-05-06T21:19:22.448Z,13.84
2023-05-06T21:24:24.777Z,13.82
2023-05-06T21:29:27.300Z,13.85
2023-05-06T21:34:29.778Z,13.75
2023-05-06T21:39:32.151Z,13.68
2023-05-06T21:44:34.536Z,13.65
2023-05-06T21:49:36.820Z,13.59
2023-05-06T21:54:39.184Z,13.53
2023-05-06T21:59:41.761Z,13.51
2023-05-06T22:04:44.135Z,13.42
2023-05-06T22:09:46.514Z,13.38
2023-05-06T22:14:48.802Z,13.29
2023-05-06T22:19:51.538Z,13.22
2023-05-06T22:24:54.485Z,13.21
2023-05-06T22:29:57.208Z,13.12
2023-05-06T22:34:59.515Z,13.09
2023-05-06T22:40:01.838Z,13.03
2023-05-06T22:45:04.188Z,12.98
2023-05-06T22:50:06.654Z,12.95
2023-05-06T22:55:10.597Z,12.87
2023-05-06T23:00:13.712Z,12.79
2023-05-06T23:05:16.338Z,12.73
2023-05-06T23:10:19.056Z,12.64
2023-05-06T23:15:22.068Z,12.65
2023-05-06T23:20:24.637Z,12.58
2023-05-06T23:25:27.832Z,12.57
2023-05-06T23:30:30.772Z,12.57
2023-05-06T23:35:33.711Z,12.50
2023-05-06T23:40:36.398Z,12.42
2023-05-06T23:45:39.016Z,12.40
2023-05-06T23:50:41.413Z,12.33
2023-05-06T23:55:43.766Z,12.35
